sensor_id;sensor_type;location;lat;lon;timestamp;pressure;altitude;pressure_sealevel;temperature;humidity
33625;BME280;19962;47.820;1.930;2023-07-22T00:01:02;100532.16;;;20.15;48.22
33625;BME280;19962;47.820;1.930;2023-07-22T00:03:29;100537.47;;;20.12;48.47
33625;BME280;19962;47.820;1.930;2023-07-22T00:06:08;100538.91;;;20.09;48.47
33625;BME280;19962;47.820;1.930;2023-07-22T00:08:36;100533.88;;;20.06;48.59
33625;BME280;19962;47.820;1.930;2023-07-22T00:11:04;100532.78;;;20.02;48.62
33625;BME280;19962;47.820;1.930;2023-07-22T00:13:30;100536.72;;;20.01;48.93
33625;BME280;19962;47.820;1.930;2023-07-22T00:15:57;100519.50;;;19.94;48.86
33625;BME280;19962;47.820;1.930;2023-07-22T00:18:25;100525.13;;;19.89;49.24
33625;BME280;19962;47.820;1.930;2023-07-22T00:20:53;100526.59;;;19.82;49.30
33625;BME280;19962;47.820;1.930;2023-07-22T00:23:20;100524.09;;;19.80;49.55
33625;BME280;19962;47.820;1.930;2023-07-22T00:25:47;100524.09;;;19.80;49.64
33625;BME280;19962;47.820;1.930;2023-07-22T00:28:14;100525.22;;;19.79;49.66
33625;BME280;19962;47.820;1.930;2023-07-22T00:30:40;100522.72;;;19.78;49.58
33625;BME280;19962;47.820;1.930;2023-07-22T00:33:07;100527.47;;;19.72;49.56
33625;BME280;19962;47.820;1.930;2023-07-22T00:35:34;100519.66;;;19.79;49.51
33625;BME280;19962;47.820;1.930;2023-07-22T00:38:01;100515.78;;;19.75;49.43
33625;BME280;19962;47.820;1.930;2023-07-22T00:40:28;100521.91;;;19.72;49.36
33625;BME280;19962;47.820;1.930;2023-07-22T00:42:56;100513.28;;;19.74;49.37
33625;BME280;19962;47.820;1.930;2023-07-22T00:45:22;100520.22;;;19.76;48.77
33625;BME280;19962;47.820;1.930;2023-07-22T00:47:48;100508.22;;;19.81;48.72
33625;BME280;19962;47.820;1.930;2023-07-22T00:50:15;100513.78;;;19.81;48.83
33625;BME280;19962;47.820;1.930;2023-07-22T00:52:41;100516.84;;;19.79;48.80
33625;BME280;19962;47.820;1.930;2023-07-22T00:55:07;100510.22;;;19.75;48.80
33625;BME280;19962;47.820;1.930;2023-07-22T00:57:36;100509.41;;;19.70;48.81
33625;BME280;19962;47.820;1.930;2023-07-22T01:00:03;100506.91;;;19.68;48.78
33625;BME280;19962;47.820;1.930;2023-07-22T01:02:31;100503.66;;;19.61;49.08
33625;BME280;19962;47.820;1.930;2023-07-22T01:04:57;100508.13;;;19.57;49.04
33625;BME280;19962;47.820;1.930;2023-07-22T01:07:24;100511.25;;;19.51;49.68
33625;BME280;19962;47.820;1.930;2023-07-22T01:09:56;100511.78;;;19.53;50.12
33625;BME280;19962;47.820;1.930;2023-07-22T01:12:24;100504.25;;;19.53;49.98
33625;BME280;19962;47.820;1.930;2023-07-22T01:14:51;100513.19;;;19.50;50.32
33625;BME280;19962;47.820;1.930;2023-07-22T01:17:17;100507.09;;;19.48;50.38
33625;BME280;19962;47.820;1.930;2023-07-22T01:19:44;100513.31;;;19.35;50.98
33625;BME280;19962;47.820;1.930;2023-07-22T01:22:11;100511.00;;;19.42;51.17
33625;BME280;19962;47.820;1.930;2023-07-22T01:24:39;100511.53;;;19.49;50.96
33625;BME280;19962;47.820;1.930;2023-07-22T01:27:06;100519.56;;;19.56;50.94
33625;BME280;19962;47.820;1.930;2023-07-22T01:29:36;100519.28;;;19.57;50.87
33625;BME280;19962;47.820;1.930;2023-07-22T01:32:02;100524.50;;;19.64;50.61
33625;BME280;19962;47.820;1.930;2023-07-22T01:34:28;100523.13;;;19.61;50.81
33625;BME280;19962;47.820;1.930;2023-07-22T01:36:55;100517.53;;;19.66;50.90
33625;BME280;19962;47.820;1.930;2023-07-22T01:39:21;100515.88;;;19.65;50.90
33625;BME280;19962;47.820;1.930;2023-07-22T01:41:48;100521.75;;;19.59;50.88
33625;BME280;19962;47.820;1.930;2023-07-22T01:44:14;100518.13;;;19.58;50.67
33625;BME280;19962;47.820;1.930;2023-07-22T01:46:41;100515.88;;;19.65;50.79
33625;BME280;19962;47.820;1.930;2023-07-22T01:49:10;100518.34;;;19.67;50.41
33625;BME280;19962;47.820;1.930;2023-07-22T01:51:36;100521.09;;;19.72;50.00
33625;BME280;19962;47.820;1.930;2023-07-22T01:54:04;100520.84;;;19.68;50.14
33625;BME280;19962;47.820;1.930;2023-07-22T01:56:30;100513.84;;;19.71;49.92
33625;BME280;19962;47.820;1.930;2023-07-22T01:58:57;100514.13;;;19.74;49.95
33625;BME280;19962;47.820;1.930;2023-07-22T02:01:23;100516.94;;;19.69;49.85
33625;BME280;19962;47.820;1.930;2023-07-22T02:03:50;100518.59;;;19.70;49.42
33625;BME280;19962;47.820;1.930;2023-07-22T02:06:16;100515.28;;;19.68;49.16
33625;BME280;19962;47.820;1.930;2023-07-22T02:08:42;100510.31;;;19.65;49.38
33625;BME280;19962;47.820;1.930;2023-07-22T02:11:08;100508.66;;;19.59;49.21
33625;BME280;19962;47.820;1.930;2023-07-22T02:13:35;100508.13;;;19.57;49.24
33625;BME280;19962;47.820;1.930;2023-07-22T02:16:02;100512.63;;;19.53;49.06
33625;BME280;19962;47.820;1.930;2023-07-22T02:18:29;100512.03;;;19.56;49.32
33625;BME280;19962;47.820;1.930;2023-07-22T02:20:56;100514.28;;;19.54;49.20
33625;BME280;19962;47.820;1.930;2023-07-22T02:23:23;100505.97;;;19.49;48.97
33625;BME280;19962;47.820;1.930;2023-07-22T02:25:54;100511.84;;;19.43;49.25
33625;BME280;19962;47.820;1.930;2023-07-22T02:28:21;100506.09;;;19.34;49.50
33625;BME280;19962;47.820;1.930;2023-07-22T02:30:51;100511.09;;;19.32;49.31
33625;BME280;19962;47.820;1.930;2023-07-22T02:33:21;100506.13;;;19.29;49.78
33625;BME280;19962;47.820;1.930;2023-07-22T02:35:50;100508.09;;;19.24;50.00
33625;BME280;19962;47.820;1.930;2023-07-22T02:38:16;100513.94;;;19.17;50.11
33625;BME280;19962;47.820;1.930;2023-07-22T02:40:42;100500.06;;;19.12;50.29
33625;BME280;19962;47.820;1.930;2023-07-22T02:43:08;100515.41;;;19.05;50.46
33625;BME280;19962;47.820;1.930;2023-07-22T02:45:35;100513.72;;;19.04;51.18
33625;BME280;19962;47.820;1.930;2023-07-22T02:48:02;100519.59;;;18.97;51.46
33625;BME280;19962;47.820;1.930;2023-07-22T02:50:28;100523.78;;;18.95;51.60
33625;BME280;19962;47.820;1.930;2023-07-22T02:52:54;100514.00;;;19.02;51.86
33625;BME280;19962;47.820;1.930;2023-07-22T02:55:21;100515.13;;;19.01;52.04
33625;BME280;19962;47.820;1.930;2023-07-22T02:57:48;100514.88;;;18.98;52.55
33625;BME280;19962;47.820;1.930;2023-07-22T03:00:19;100514.03;;;18.97;53.01
33625;BME280;19962;47.820;1.930;2023-07-22T03:02:50;100515.22;;;18.86;53.39
33625;BME280;19962;47.820;1.930;2023-07-22T03:05:18;100513.00;;;18.83;53.62
33625;BME280;19962;47.820;1.930;2023-07-22T03:07:44;100521.34;;;18.83;53.26
33625;BME280;19962;47.820;1.930;2023-07-22T03:10:10;100518.00;;;18.86;53.43
33625;BME280;19962;47.820;1.930;2023-07-22T03:12:37;100521.06;;;18.85;53.94
33625;BME280;19962;47.820;1.930;2023-07-22T03:15:04;100514.69;;;18.79;54.01
33625;BME280;19962;47.820;1.930;2023-07-22T03:17:31;100517.72;;;18.88;53.69
33625;BME280;19962;47.820;1.930;2023-07-22T03:19:57;100513.84;;;18.84;53.98
33625;BME280;19962;47.820;1.930;2023-07-22T03:22:23;100518.00;;;18.86;54.08
33625;BME280;19962;47.820;1.930;2023-07-22T03:24:49;100516.38;;;18.75;54.31
33625;BME280;19962;47.820;1.930;2023-07-22T03:27:16;100517.00;;;18.67;54.80
33625;BME280;19962;47.820;1.930;2023-07-22T03:29:43;100520.84;;;18.76;54.47
33625;BME280;19962;47.820;1.930;2023-07-22T03:32:09;100525.88;;;18.64;55.01
33625;BME280;19962;47.820;1.930;2023-07-22T03:34:35;100529.78;;;18.53;55.21
33625;BME280;19962;47.820;1.930;2023-07-22T03:37:01;100524.28;;;18.43;55.63
33625;BME280;19962;47.820;1.930;2023-07-22T03:39:28;100522.88;;;18.46;55.96
33625;BME280;19962;47.820;1.930;2023-07-22T03:41:54;100535.97;;;18.40;56.27
33625;BME280;19962;47.820;1.930;2023-07-22T03:44:20;100532.09;;;18.36;56.15
33625;BME280;19962;47.820;1.930;2023-07-22T03:46:46;100525.94;;;18.39;56.18
33625;BME280;19962;47.820;1.930;2023-07-22T03:49:12;100532.66;;;18.33;56.46
33625;BME280;19962;47.820;1.930;2023-07-22T03:51:39;100524.59;;;18.17;56.93
33625;BME280;19962;47.820;1.930;2023-07-22T03:54:05;100522.09;;;18.15;56.83
33625;BME280;19962;47.820;1.930;2023-07-22T03:56:31;100524.91;;;18.05;57.13
33625;BME280;19962;47.820;1.930;2023-07-22T03:58:57;100525.47;;;17.97;57.42
33625;BME280;19962;47.820;1.930;2023-07-22T04:01:23;100521.56;;;17.98;57.39
33625;BME280;19962;47.820;1.930;2023-07-22T04:03:49;100522.41;;;17.99;57.51
33625;BME280;19962;47.820;1.930;2023-07-22T04:06:15;100521.56;;;17.93;57.92
33625;BME280;19962;47.820;1.930;2023-07-22T04:08:41;100521.31;;;17.85;58.25
33625;BME280;19962;47.820;1.930;2023-07-22T04:11:08;100516.31;;;17.82;58.39
33625;BME280;19962;47.820;1.930;2023-07-22T04:13:34;100520.19;;;17.91;58.40
33625;BME280;19962;47.820;1.930;2023-07-22T04:16:00;100516.03;;;17.93;58.60
33625;BME280;19962;47.820;1.930;2023-07-22T04:18:26;100519.06;;;17.92;58.43
33625;BME280;19962;47.820;1.930;2023-07-22T04:20:56;100525.19;;;17.99;58.64
33625;BME280;19962;47.820;1.930;2023-07-22T04:23:23;100522.69;;;18.02;58.08
33625;BME280;19962;47.820;1.930;2023-07-22T04:25:49;100517.13;;;17.97;58.51
33625;BME280;19962;47.820;1.930;2023-07-22T04:28:15;100523.50;;;17.88;59.02
33625;BME280;19962;47.820;1.930;2023-07-22T04:30:41;100518.50;;;17.80;59.25
33625;BME280;19962;47.820;1.930;2023-07-22T04:33:08;100515.75;;;17.80;59.05
33625;BME280;19962;47.820;1.930;2023-07-22T04:35:41;100516.56;;;17.85;59.11
33625;BME280;19962;47.820;1.930;2023-07-22T04:38:07;100522.13;;;17.75;59.32
33625;BME280;19962;47.820;1.930;2023-07-22T04:40:33;100518.25;;;17.66;59.73
33625;BME280;19962;47.820;1.930;2023-07-22T04:42:59;100514.63;;;17.66;59.91
33625;BME280;19962;47.820;1.930;2023-07-22T04:45:25;100517.72;;;17.69;59.62
33625;BME280;19962;47.820;1.930;2023-07-22T04:47:51;100519.38;;;17.70;59.94
33625;BME280;19962;47.820;1.930;2023-07-22T04:50:18;100516.03;;;17.68;59.96
33625;BME280;19962;47.820;1.930;2023-07-22T04:52:47;100526.31;;;17.68;60.06
33625;BME280;19962;47.820;1.930;2023-07-22T04:55:14;100526.31;;;17.63;60.23
33625;BME280;19962;47.820;1.930;2023-07-22T04:57:41;100521.88;;;17.67;60.08
33625;BME280;19962;47.820;1.930;2023-07-22T05:00:08;100521.88;;;17.72;60.08
33625;BME280;19962;47.820;1.930;2023-07-22T05:02:40;100526.56;;;17.71;60.19
33625;BME280;19962;47.820;1.930;2023-07-22T05:05:07;100520.75;;;17.78;59.88
33625;BME280;19962;47.820;1.930;2023-07-22T05:07:33;100520.47;;;17.79;59.70
33625;BME280;19962;47.820;1.930;2023-07-22T05:09:59;100530.44;;;17.90;59.09
33625;BME280;19962;47.820;1.930;2023-07-22T05:12:25;100527.66;;;17.95;59.08
33625;BME280;19962;47.820;1.930;2023-07-22T05:14:52;100525.47;;;17.87;59.09
33625;BME280;19962;47.820;1.930;2023-07-22T05:17:18;100534.59;;;17.93;58.92
33625;BME280;19962;47.820;1.930;2023-07-22T05:19:44;100534.91;;;17.96;58.80
33625;BME280;19962;47.820;1.930;2023-07-22T05:22:10;100531.31;;;17.76;59.06
33625;BME280;19962;47.820;1.930;2023-07-22T05:24:36;100534.09;;;17.76;59.51
33625;BME280;19962;47.820;1.930;2023-07-22T05:27:03;100535.16;;;17.80;59.71
33625;BME280;19962;47.820;1.930;2023-07-22T05:29:29;100539.63;;;17.81;59.69
33625;BME280;19962;47.820;1.930;2023-07-22T05:31:55;100537.38;;;17.88;59.52
33625;BME280;19962;47.820;1.930;2023-07-22T05:34:21;100541.00;;;17.93;59.56
33625;BME280;19962;47.820;1.930;2023-07-22T05:36:47;100540.16;;;17.93;59.41
33625;BME280;19962;47.820;1.930;2023-07-22T05:39:13;100544.31;;;17.95;59.34
33625;BME280;19962;47.820;1.930;2023-07-22T05:41:43;100546.56;;;17.93;59.77
33625;BME280;19962;47.820;1.930;2023-07-22T05:44:09;100541.56;;;18.00;59.54
33625;BME280;19962;47.820;1.930;2023-07-22T05:46:35;100541.56;;;17.90;59.88
33625;BME280;19962;47.820;1.930;2023-07-22T05:49:01;100546.00;;;17.96;59.34
33625;BME280;19962;47.820;1.930;2023-07-22T05:51:27;100539.31;;;18.02;58.99
33625;BME280;19962;47.820;1.930;2023-07-22T05:53:54;100542.09;;;18.07;59.01
33625;BME280;19962;47.820;1.930;2023-07-22T05:56:20;100535.41;;;18.13;58.68
33625;BME280;19962;47.820;1.930;2023-07-22T05:58:46;100534.88;;;18.16;58.96
33625;BME280;19962;47.820;1.930;2023-07-22T06:01:12;100544.88;;;18.22;59.41
33625;BME280;19962;47.820;1.930;2023-07-22T06:03:40;100544.84;;;18.32;58.63
33625;BME280;19962;47.820;1.930;2023-07-22T06:06:08;100543.75;;;18.38;58.62
33625;BME280;19962;47.820;1.930;2023-07-22T06:08:34;100542.59;;;18.44;58.33
33625;BME280;19962;47.820;1.930;2023-07-22T06:11:00;100536.44;;;18.57;58.03
33625;BME280;19962;47.820;1.930;2023-07-22T06:13:26;100534.22;;;18.64;57.65
33625;BME280;19962;47.820;1.930;2023-07-22T06:15:53;100534.75;;;18.66;57.84
33625;BME280;19962;47.820;1.930;2023-07-22T06:18:19;100538.91;;;18.69;58.28
33625;BME280;19962;47.820;1.930;2023-07-22T06:20:45;100541.38;;;18.75;58.08
33625;BME280;19962;47.820;1.930;2023-07-22T06:23:12;100541.41;;;18.80;58.26
33625;BME280;19962;47.820;1.930;2023-07-22T06:25:38;100546.94;;;18.85;58.01
33625;BME280;19962;47.820;1.930;2023-07-22T06:28:04;100544.66;;;18.92;58.08
33625;BME280;19962;47.820;1.930;2023-07-22T06:30:31;100541.84;;;18.97;57.84
33625;BME280;19962;47.820;1.930;2023-07-22T06:32:57;100545.44;;;19.03;57.65
33625;BME280;19962;47.820;1.930;2023-07-22T06:35:23;100547.06;;;19.14;57.37
33625;BME280;19962;47.820;1.930;2023-07-22T06:37:49;100543.13;;;19.20;56.86
33625;BME280;19962;47.820;1.930;2023-07-22T06:40:15;100541.44;;;19.29;56.41
33625;BME280;19962;47.820;1.930;2023-07-22T06:42:41;100537.50;;;19.35;56.40
33625;BME280;19962;47.820;1.930;2023-07-22T06:45:08;100537.13;;;19.46;56.33
33625;BME280;19962;47.820;1.930;2023-07-22T06:47:34;100539.88;;;19.56;56.25
33625;BME280;19962;47.820;1.930;2023-07-22T06:50:03;100544.22;;;19.67;56.14
33625;BME280;19962;47.820;1.930;2023-07-22T06:52:30;100543.84;;;19.79;56.00
33625;BME280;19962;47.820;1.930;2023-07-22T06:54:57;100549.66;;;19.87;55.43
33625;BME280;19962;47.820;1.930;2023-07-22T06:57:23;100547.97;;;19.86;55.58
33625;BME280;19962;47.820;1.930;2023-07-22T06:59:55;100549.00;;;19.95;55.21
33625;BME280;19962;47.820;1.930;2023-07-22T07:02:21;100550.34;;;20.03;54.77
33625;BME280;19962;47.820;1.930;2023-07-22T07:04:48;100548.91;;;20.10;54.64
33625;BME280;19962;47.820;1.930;2023-07-22T07:07:14;100546.97;;;20.06;54.66
33625;BME280;19962;47.820;1.930;2023-07-22T07:09:41;100545.53;;;20.13;54.49
33625;BME280;19962;47.820;1.930;2023-07-22T07:12:08;100546.59;;;20.17;54.37
33625;BME280;19962;47.820;1.930;2023-07-22T07:14:34;100549.31;;;20.27;54.11
33625;BME280;19962;47.820;1.930;2023-07-22T07:17:01;100544.78;;;20.31;53.57
33625;BME280;19962;47.820;1.930;2023-07-22T07:19:28;100554.47;;;20.39;53.57
33625;BME280;19962;47.820;1.930;2023-07-22T07:21:54;100558.34;;;20.43;53.11
33625;BME280;19962;47.820;1.930;2023-07-22T07:24:21;100548.56;;;20.45;53.25
33625;BME280;19962;47.820;1.930;2023-07-22T07:26:47;100548.31;;;20.65;52.64
33625;BME280;19962;47.820;1.930;2023-07-22T07:29:13;100551.16;;;20.60;52.12
33625;BME280;19962;47.820;1.930;2023-07-22T07:31:39;100550.53;;;20.68;51.94
33625;BME280;19962;47.820;1.930;2023-07-22T07:34:06;100551.09;;;20.65;51.58
33625;BME280;19962;47.820;1.930;2023-07-22T07:36:33;100548.81;;;20.72;51.32
33625;BME280;19962;47.820;1.930;2023-07-22T07:38:59;100554.84;;;20.79;51.10
33625;BME280;19962;47.820;1.930;2023-07-22T07:41:25;100554.31;;;20.77;50.88
33625;BME280;19962;47.820;1.930;2023-07-22T07:43:52;100553.66;;;20.62;50.85
33625;BME280;19962;47.820;1.930;2023-07-22T07:46:28;100557.31;;;20.57;50.25
33625;BME280;19962;47.820;1.930;2023-07-22T07:48:57;100547.75;;;20.68;50.36
33625;BME280;19962;47.820;1.930;2023-07-22T07:51:24;100553.41;;;20.82;50.36
33625;BME280;19962;47.820;1.930;2023-07-22T07:53:54;100547.69;;;20.97;49.98
33625;BME280;19962;47.820;1.930;2023-07-22T07:56:21;100542.81;;;21.07;49.73
33625;BME280;19962;47.820;1.930;2023-07-22T07:58:49;100549.31;;;21.21;49.99
33625;BME280;19962;47.820;1.930;2023-07-22T08:01:16;100554.16;;;21.34;49.77
33625;BME280;19962;47.820;1.930;2023-07-22T08:03:43;100544.03;;;21.38;49.89
33625;BME280;19962;47.820;1.930;2023-07-22T08:06:11;100547.94;;;21.37;49.97
33625;BME280;19962;47.820;1.930;2023-07-22T08:08:38;100546.81;;;21.38;49.91
33625;BME280;19962;47.820;1.930;2023-07-22T08:13:35;100546.38;;;21.31;49.84
33625;BME280;19962;47.820;1.930;2023-07-22T08:16:08;100549.16;;;21.31;49.72
33625;BME280;19962;47.820;1.930;2023-07-22T08:18:36;100549.16;;;21.31;49.41
33625;BME280;19962;47.820;1.930;2023-07-22T08:21:04;100549.75;;;21.28;49.15
33625;BME280;19962;47.820;1.930;2023-07-22T08:23:30;100540.88;;;21.26;49.21
33625;BME280;19962;47.820;1.930;2023-07-22T08:25:56;100545.25;;;21.32;49.41
33625;BME280;19962;47.820;1.930;2023-07-22T08:28:23;100544.34;;;21.37;49.07
33625;BME280;19962;47.820;1.930;2023-07-22T08:30:49;100543.50;;;21.36;48.49
33625;BME280;19962;47.820;1.930;2023-07-22T08:33:15;100542.91;;;21.39;48.61
33625;BME280;19962;47.820;1.930;2023-07-22T08:35:42;100544.50;;;21.45;48.64
33625;BME280;19962;47.820;1.930;2023-07-22T08:38:09;100544.41;;;21.50;48.63
33625;BME280;19962;47.820;1.930;2023-07-22T08:40:36;100544.41;;;21.50;48.60
33625;BME280;19962;47.820;1.930;2023-07-22T08:43:04;100550.06;;;21.45;48.45
33625;BME280;19962;47.820;1.930;2023-07-22T08:45:32;100545.25;;;21.51;48.11
33625;BME280;19962;47.820;1.930;2023-07-22T08:48:02;100543.81;;;21.53;47.99
33625;BME280;19962;47.820;1.930;2023-07-22T08:50:30;100529.56;;;21.55;48.00
33625;BME280;19962;47.820;1.930;2023-07-22T08:53:00;100537.94;;;21.55;47.49
33625;BME280;19962;47.820;1.930;2023-07-22T08:55:27;100538.81;;;21.50;47.68
33625;BME280;19962;47.820;1.930;2023-07-22T08:57:54;100536.59;;;21.52;47.62
33625;BME280;19962;47.820;1.930;2023-07-22T09:00:21;100523.72;;;21.51;47.63
33625;BME280;19962;47.820;1.930;2023-07-22T09:02:47;100524.56;;;21.52;47.57
33625;BME280;19962;47.820;1.930;2023-07-22T09:05:14;100530.91;;;21.57;47.73
33625;BME280;19962;47.820;1.930;2023-07-22T09:07:42;100528.63;;;21.59;47.34
33625;BME280;19962;47.820;1.930;2023-07-22T09:10:09;100533.03;;;21.65;47.32
33625;BME280;19962;47.820;1.930;2023-07-22T09:12:36;100519.06;;;21.65;46.78
33625;BME280;19962;47.820;1.930;2023-07-22T09:15:11;100523.22;;;21.68;46.77
33625;BME280;19962;47.820;1.930;2023-07-22T09:17:39;100522.38;;;21.67;46.59
33625;BME280;19962;47.820;1.930;2023-07-22T09:20:05;100519.97;;;21.79;46.03
33625;BME280;19962;47.820;1.930;2023-07-22T09:22:32;100519.59;;;21.86;45.99
33625;BME280;19962;47.820;1.930;2023-07-22T09:25:24;100520.94;;;21.88;45.98
33625;BME280;19962;47.820;1.930;2023-07-22T09:27:55;100512.06;;;22.00;45.85
33625;BME280;19962;47.820;1.930;2023-07-22T09:30:28;100508.88;;;22.06;45.25
33625;BME280;19962;47.820;1.930;2023-07-22T09:32:57;100517.78;;;22.08;45.50
33625;BME280;19962;47.820;1.930;2023-07-22T09:35:42;100508.69;;;22.16;45.56
33625;BME280;19962;47.820;1.930;2023-07-22T09:38:09;100510.59;;;22.34;45.29
33625;BME280;19962;47.820;1.930;2023-07-22T09:40:35;100516.94;;;22.53;45.08
33625;BME280;19962;47.820;1.930;2023-07-22T09:43:03;100507.75;;;22.53;44.80
33625;BME280;19962;47.820;1.930;2023-07-22T09:45:30;100511.78;;;22.60;44.57
33625;BME280;19962;47.820;1.930;2023-07-22T09:47:57;100518.31;;;22.69;44.51
33625;BME280;19962;47.820;1.930;2023-07-22T09:50:25;100511.47;;;22.75;44.03
33625;BME280;19962;47.820;1.930;2023-07-22T09:52:56;100512.41;;;22.71;43.93
33625;BME280;19962;47.820;1.930;2023-07-22T09:55:25;100516.34;;;22.70;44.10
33625;BME280;19962;47.820;1.930;2023-07-22T09:57:59;100513.03;;;22.68;44.19
33625;BME280;19962;47.820;1.930;2023-07-22T10:00:35;100507.50;;;22.76;44.26
33625;BME280;19962;47.820;1.930;2023-07-22T10:03:03;100504.31;;;22.83;44.06
33625;BME280;19962;47.820;1.930;2023-07-22T10:05:34;100500.16;;;22.94;44.10
33625;BME280;19962;47.820;1.930;2023-07-22T10:08:02;100497.97;;;23.04;44.08
33625;BME280;19962;47.820;1.930;2023-07-22T10:10:46;100501.69;;;23.13;43.64
33625;BME280;19962;47.820;1.930;2023-07-22T10:13:13;100495.25;;;23.26;43.74
33625;BME280;19962;47.820;1.930;2023-07-22T10:15:40;100510.78;;;23.32;43.64
33625;BME280;19962;47.820;1.930;2023-07-22T10:18:07;100501.56;;;23.32;43.61
33625;BME280;19962;47.820;1.930;2023-07-22T10:20:34;100504.63;;;23.44;43.34
33625;BME280;19962;47.820;1.930;2023-07-22T10:23:02;100501.59;;;23.54;42.98
33625;BME280;19962;47.820;1.930;2023-07-22T10:25:30;100497.22;;;23.61;42.90
33625;BME280;19962;47.820;1.930;2023-07-22T10:27:56;100501.09;;;23.74;42.80
33625;BME280;19962;47.820;1.930;2023-07-22T10:30:22;100495.69;;;23.77;42.34
33625;BME280;19962;47.820;1.930;2023-07-22T10:32:53;100487.41;;;23.72;42.07
33625;BME280;19962;47.820;1.930;2023-07-22T10:38:11;100486.66;;;23.58;42.52
33625;BME280;19962;47.820;1.930;2023-07-22T10:40:51;100483.75;;;23.50;42.84
33625;BME280;19962;47.820;1.930;2023-07-22T10:45:53;100491.22;;;23.54;43.04
33625;BME280;19962;47.820;1.930;2023-07-22T10:48:20;100483.28;;;23.70;42.78
33625;BME280;19962;47.820;1.930;2023-07-22T10:50:51;100486.78;;;23.75;42.78
33625;BME280;19962;47.820;1.930;2023-07-22T10:53:29;100492.16;;;23.72;42.23
33625;BME280;19962;47.820;1.930;2023-07-22T10:56:16;100488.38;;;23.68;41.84
33625;BME280;19962;47.820;1.930;2023-07-22T11:11:57;100470.28;;;24.57;41.17
33625;BME280;19962;47.820;1.930;2023-07-22T11:14:25;100467.28;;;24.53;40.72
33625;BME280;19962;47.820;1.930;2023-07-22T11:16:52;100469.28;;;24.53;40.90
33625;BME280;19962;47.820;1.930;2023-07-22T11:19:23;100465.31;;;24.54;41.08
33625;BME280;19962;47.820;1.930;2023-07-22T11:21:50;100457.84;;;24.49;41.01
33625;BME280;19962;47.820;1.930;2023-07-22T11:24:17;100451.25;;;24.45;41.14
33625;BME280;19962;47.820;1.930;2023-07-22T11:26:45;100459.00;;;24.48;41.11
33625;BME280;19962;47.820;1.930;2023-07-22T11:29:15;100442.72;;;24.51;40.90
33625;BME280;19962;47.820;1.930;2023-07-22T11:31:43;100446.47;;;24.46;40.75
33625;BME280;19962;47.820;1.930;2023-07-22T11:34:12;100441.69;;;24.47;40.84
33625;BME280;19962;47.820;1.930;2023-07-22T11:36:39;100441.03;;;24.49;40.82
33625;BME280;19962;47.820;1.930;2023-07-22T11:39:16;100430.16;;;24.48;41.01
33625;BME280;19962;47.820;1.930;2023-07-22T11:41:43;100436.56;;;24.48;40.95
33625;BME280;19962;47.820;1.930;2023-07-22T11:44:12;100433.09;;;24.43;40.87
33625;BME280;19962;47.820;1.930;2023-07-22T11:47:07;100431.28;;;24.47;41.22
33625;BME280;19962;47.820;1.930;2023-07-22T11:49:40;100411.75;;;24.64;40.62
33625;BME280;19962;47.820;1.930;2023-07-22T11:52:11;100417.56;;;24.85;40.26
33625;BME280;19962;47.820;1.930;2023-07-22T11:54:42;100409.97;;;24.94;40.01
33625;BME280;19962;47.820;1.930;2023-07-22T11:57:22;100420.88;;;24.87;39.83
33625;BME280;19962;47.820;1.930;2023-07-22T11:59:50;100413.94;;;24.84;39.92
33625;BME280;19962;47.820;1.930;2023-07-22T12:02:18;100413.06;;;24.67;39.93
33625;BME280;19962;47.820;1.930;2023-07-22T12:04:52;100409.38;;;24.49;39.78
33625;BME280;19962;47.820;1.930;2023-07-22T12:07:29;100413.66;;;24.47;40.36
33625;BME280;19962;47.820;1.930;2023-07-22T12:09:57;100413.66;;;24.47;40.24
33625;BME280;19962;47.820;1.930;2023-07-22T12:12:38;100406.56;;;24.49;39.93
33625;BME280;19962;47.820;1.930;2023-07-22T12:15:19;100398.16;;;24.58;40.23
33625;BME280;19962;47.820;1.930;2023-07-22T12:17:53;100407.34;;;24.80;40.10
33625;BME280;19962;47.820;1.930;2023-07-22T12:20:29;100396.91;;;24.81;39.93
33625;BME280;19962;47.820;1.930;2023-07-22T12:22:56;100397.44;;;24.83;39.83
33625;BME280;19962;47.820;1.930;2023-07-22T12:25:23;100395.63;;;25.04;39.85
33625;BME280;19962;47.820;1.930;2023-07-22T12:27:50;100380.44;;;25.05;39.51
33625;BME280;19962;47.820;1.930;2023-07-22T12:30:16;100378.78;;;25.12;39.44
33625;BME280;19962;47.820;1.930;2023-07-22T12:32:43;100382.75;;;25.20;39.42
33625;BME280;19962;47.820;1.930;2023-07-22T12:35:10;100377.16;;;25.28;39.31
33625;BME280;19962;47.820;1.930;2023-07-22T12:37:36;100381.78;;;25.33;38.89
33625;BME280;19962;47.820;1.930;2023-07-22T12:40:03;100369.22;;;25.22;38.76
33625;BME280;19962;47.820;1.930;2023-07-22T12:42:31;100373.34;;;25.16;38.98
33625;BME280;19962;47.820;1.930;2023-07-22T12:44:58;100369.53;;;25.12;39.28
33625;BME280;19962;47.820;1.930;2023-07-22T12:47:24;100360.47;;;24.98;39.07
33625;BME280;19962;47.820;1.930;2023-07-22T12:49:50;100357.66;;;24.98;39.03
33625;BME280;19962;47.820;1.930;2023-07-22T12:52:16;100362.94;;;24.99;38.95
33625;BME280;19962;47.820;1.930;2023-07-22T12:54:42;100355.66;;;25.07;38.91
33625;BME280;19962;47.820;1.930;2023-07-22T12:57:08;100354.81;;;25.23;38.60
33625;BME280;19962;47.820;1.930;2023-07-22T12:59:34;100358.66;;;25.19;38.69
33625;BME280;19962;47.820;1.930;2023-07-22T13:02:00;100356.00;;;25.14;38.71
33625;BME280;19962;47.820;1.930;2023-07-22T13:04:26;100353.19;;;25.22;38.43
33625;BME280;19962;47.820;1.930;2023-07-22T13:06:52;100351.03;;;25.11;38.59
33625;BME280;19962;47.820;1.930;2023-07-22T13:09:19;100348.06;;;24.99;38.69
33625;BME280;19962;47.820;1.930;2023-07-22T13:11:46;100343.47;;;25.11;38.43
33625;BME280;19962;47.820;1.930;2023-07-22T13:14:12;100345.59;;;25.23;38.52